Weather reports worldwide

Advertisment
Rodkallen, Sweden (2188): temperature & dewpoint: 11.08.2017 09:00:00 - 17.08.2017 09:00:00 (CEST)Rodkallen, Sweden (2188): wind speed & gusts: 11.08.2017 09:00:00 - 17.08.2017 09:00:00 (CEST)Rodkallen, Sweden (2188): wind direction: 11.08.2017 09:00:00 - 17.08.2017 09:00:00 (CEST)Rodkallen, Sweden (2188): visibility: 11.08.2017 09:00:00 - 17.08.2017 09:00:00 (CEST)Rodkallen, Sweden (2188): precipitation: 11.08.2017 09:00:00 - 17.08.2017 09:00:00 (CEST)
Date & Time tt [°C] td [°C] ff [km/h] ff [kn] fx [km/h] fx [kn] dd vv [km] rr [mm]
17.08.2017 09:00:00 13,3 9,9 27 15 37 20 SW 34 0,0
17.08.2017 08:00:00 12,8 9,8 32 17 40 22 SW 50 0,0
17.08.2017 07:00:00 12,3 9,7 34 18 39 21 SW 41 0,0
17.08.2017 06:00:00 12,2 9,9 32 17 38 20 SW 50 0,0
17.08.2017 05:00:00 12,5 10,0 30 16 41 22 SW 50 0,0
17.08.2017 04:00:00 12,8 10,0 35 19 46 25 WSW 50 0,0
17.08.2017 03:00:00 13,0 10,5 35 19 49 27 WSW 50 0,0
17.08.2017 02:00:00 13,3 11,5 39 21 48 26 WSW 50 0,0
17.08.2017 01:00:00 13,4 12,5 37 20 48 26 SW 50 0,0
17.08.2017 00:00:00 14,1 13,8 29 16 45 24 S 16 0,0
16.08.2017 23:00:00 14,5 14,0 38 21 52 28 S 17 0,0
16.08.2017 22:00:00 14,4 13,6 40 21 50 27 SSE 7 0,6
16.08.2017 21:00:00 14,0 13,2 34 18 42 23 SE 10 1,6
16.08.2017 20:00:00 14,1 12,8 27 15 36 20 SSE 9 0,3
16.08.2017 19:00:00 14,6 12,6 30 16 48 26 SSE 37 0,0
16.08.2017 18:00:00 15,0 13,2 35 19 42 23 S 18 0,0
16.08.2017 17:00:00 14,3 13,2 29 16 50 27 SE 35 0,0
16.08.2017 16:00:00 14,4 12,9 44 24 55 30 SSE 10 0,0
16.08.2017 15:00:00 15,1 13,1 30 16 40 21 SSE 30 0,0
16.08.2017 14:00:00 14,6 13,3 35 19 42 23 SSE 25 0,0
16.08.2017 13:00:00 14,9 13,6 28 15 39 21 SSE 25 0,0
16.08.2017 12:00:00 14,9 13,4 29 16 37 20 SSE 26 0,0
16.08.2017 11:00:00 15,2 13,9 27 15 35 19 SSE 23 0,0
16.08.2017 10:00:00 14,8 13,7 26 14 35 19 S 23 0,0
16.08.2017 09:00:00 14,3 13,3 20 11 26 14 S 22 0,0
16.08.2017 08:00:00 14,3 13,0 21 12 34 18 S 25 0,0
16.08.2017 07:00:00 14,0 12,9 22 12 29 15 S 26 0,0
16.08.2017 06:00:00 14,0 13,0 19 10 27 15 S 22 0,0
16.08.2017 05:00:00 14,0 13,7 23 12 30 16 SSW 17 0,0
16.08.2017 04:00:00 13,9 13,6 23 13 29 15 S 15 0,0
16.08.2017 03:00:00 13,8 13,0 23 12 32 17 S 25 0,0
16.08.2017 02:00:00 13,9 12,9 28 15 35 19 S 26 0,0
16.08.2017 01:00:00 13,9 12,8 26 14 34 18 SSW 37 0,0
16.08.2017 00:00:00 14,0 13,0 28 15 36 19 SSW 35 0,0
15.08.2017 23:00:00 14,2 12,9 31 17 41 22 S 28 0,0
15.08.2017 22:00:00 14,4 12,8 34 18 41 22 S 37 0,0
15.08.2017 21:00:00 14,7 12,9 26 14 37 20 S 47 0,0
15.08.2017 20:00:00 15,1 12,4 32 17 40 22 S 50 0,0
15.08.2017 19:00:00 15,2 12,3 30 16 37 20 S 45 0,0
15.08.2017 18:00:00 14,7 12,4 24 13 32 17 SE 50 0,0
15.08.2017 17:00:00 14,7 11,1 21 11 26 14 SE 47 0,0
15.08.2017 16:00:00 14,4 10,4 20 11 30 16 SSE 46 0,0
15.08.2017 15:00:00 14,6 9,6 21 11 32 17 S 44 0,0
15.08.2017 14:00:00 14,6 9,8 26 14 31 17 S 43 0,0
15.08.2017 13:00:00 14,0 8,8 27 15 31 17 SSW 44 0,0
15.08.2017 12:00:00 13,7 9,1 23 12 27 15 SSW 38 0,0
15.08.2017 11:00:00 13,2 8,3 24 13 33 18 SSW 44 0,0
15.08.2017 10:00:00 13,0 8,1 24 13 33 18 SW 45 0,0
15.08.2017 09:00:00 12,4 8,3 29 16 35 19 SW 50 0,0
15.08.2017 08:00:00 12,1 7,8 22 12 30 16 WSW 46 0,0
15.08.2017 07:00:00 11,9 7,8 26 14 31 17 SW 44 0,0
15.08.2017 06:00:00 12,0 8,1 27 15 35 19 WSW 47 0,0
15.08.2017 05:00:00 11,8 7,9 27 15 35 19 WSW 50 0,0
15.08.2017 04:00:00 12,2 7,9 30 16 37 20 WSW 50 0,0
15.08.2017 03:00:00 12,5 8,6 28 15 33 18 WSW 50 0,0
15.08.2017 02:00:00 12,9 8,4 30 16 37 20 WSW 50 0,0
15.08.2017 01:00:00 13,6 9,1 30 16 45 24 WSW 50 0,0
15.08.2017 00:00:00 14,1 8,9 37 20 49 26 WSW 50 0,0
14.08.2017 23:00:00 14,5 10,3 24 13 33 18 SW 50 0,0
14.08.2017 22:00:00 14,9 10,3 26 14 31 17 WSW 50 0,0
14.08.2017 21:00:00 15,3 9,2 24 13 41 22 W 50 0,0
14.08.2017 20:00:00 15,9 9,1 33 18 40 22 W 49 0,0
14.08.2017 19:00:00 16,5 8,7 32 17 38 20 W 50 0,0
14.08.2017 18:00:00 16,7 8,6 28 15 46 25 W 40 0,0
14.08.2017 17:00:00 17,3 8,7 32 17 42 23 W 39 0,0
14.08.2017 16:00:00 17,4 8,5 32 18 39 21 WSW 36 0,0
14.08.2017 15:00:00 17,4 9,1 27 14 37 20 WSW 40 0,0
14.08.2017 14:00:00 17,3 9,5 21 11 42 23 WSW 39 0,0
14.08.2017 13:00:00 16,6 7,8 34 18 45 24 W 41 0,0
14.08.2017 12:00:00 16,6 8,0 29 16 39 21 W 38 0,0
14.08.2017 11:00:00 15,7 8,9 32 17 43 23 WSW 36 0,0
14.08.2017 10:00:00 15,1 8,1 37 20 44 24 WSW 38 0,0
14.08.2017 09:00:00 13,6 8,4 29 16 42 23 SW 45 0,0
14.08.2017 08:00:00 13,0 8,3 35 19 42 23 WSW 50 0,0
14.08.2017 07:00:00 12,3 7,8 32 17 39 21 WSW 50 0,0
14.08.2017 06:00:00 11,6 7,3 32 17 43 23 WSW 50 0,0
14.08.2017 05:00:00 11,6 7,3 35 19 47 25 SW 50 0,0
14.08.2017 04:00:00 12,0 6,9 37 20 49 26 SW 50 0,0
14.08.2017 03:00:00 12,2 7,1 36 20 46 25 WSW 50 0,0
14.08.2017 02:00:00 12,9 6,9 32 17 51 28 SW 50 0,0
14.08.2017 01:00:00 13,4 7,0 38 20 46 25 WSW 50 0,0
14.08.2017 00:00:00 13,9 7,2 35 19 44 24 WSW 50 0,0
13.08.2017 23:00:00 14,8 7,6 35 19 40 22 WSW 50 0,0
13.08.2017 22:00:00 15,2 9,5 23 12 34 18 WSW 50 0,0
13.08.2017 21:00:00 15,2 10,0 26 14 32 17 SW 50 0,0
13.08.2017 20:00:00 15,8 9,7 24 13 33 18 WSW 50 0,0
13.08.2017 19:00:00 16,1 9,3 21 11 38 20 W 50 0,0
13.08.2017 18:00:00 16,4 9,6 23 12 36 20 W 50 0,0
13.08.2017 17:00:00 16,5 8,7 30 16 37 20 W 50 0,0
13.08.2017 16:00:00 16,3 10,6 19 10 32 17 WSW 46 0,0
13.08.2017 15:00:00 16,3 9,9 28 15 34 18 W 50 0,0
13.08.2017 14:00:00 16,3 10,6 23 13 37 20 W 45 0,0
13.08.2017 13:00:00 16,2 10,9 23 12 36 19 W 47 0,0
13.08.2017 12:00:00 15,4 11,0 27 14 35 19 W 42 0,0
13.08.2017 11:00:00 14,1 11,3 29 16 34 18 WNW 50 0,0
13.08.2017 10:00:00 13,9 11,6 27 15 38 21 W 50 0,0
13.08.2017 09:00:00 13,8 11,8 31 17 36 19 WNW 50 0,0
13.08.2017 08:00:00 13,8 12,4 22 12 40 21 WNW 40 0,1
13.08.2017 07:00:00 14,0 12,2 32 18 40 21 WNW 50 0,0
13.08.2017 06:00:00 14,0 13,2 29 16 34 18 W 24 0,0
13.08.2017 05:00:00 14,9 14,3 10 5 28 15 NNW 50 0,0
13.08.2017 04:00:00 15,0 14,8 16 9 27 15 WNW 40 0,0
13.08.2017 03:00:00 14,6 14,4 13 7 18 10 WSW 15 0,0
13.08.2017 02:00:00 14,4 14,1 18 10 29 16 SSW 16 0,0
13.08.2017 01:00:00 14,6 14,3 25 14 34 18 S 14 0,0
13.08.2017 00:00:00 14,8 14,2 29 16 39 21 S 17 0,0
12.08.2017 23:00:00 14,8 14,3 28 15 39 21 S 16 0,0
12.08.2017 22:00:00 15,0 14,4 34 18 41 22 S 17 0,0
12.08.2017 21:00:00 15,0 14,0 32 17 44 24 S 17 0,0
12.08.2017 20:00:00 15,3 14,3 36 19 45 24 S 18 0,0
12.08.2017 19:00:00 15,4 14,1 34 18 46 25 S 18 0,0
12.08.2017 18:00:00 15,6 14,3 39 21 49 27 S 19 0,0
12.08.2017 17:00:00 15,8 14,3 39 21 52 28 S 24 0,0
12.08.2017 16:00:00 15,8 14,0 42 23 54 29 S 25 0,0
12.08.2017 15:00:00 16,4 14,1 42 23 52 28 S 30 0,0
12.08.2017 14:00:00 16,3 14,3 39 21 53 29 S 21 0,0
12.08.2017 13:00:00 16,3 14,3 44 24 53 29 S 20 0,0
12.08.2017 12:00:00 16,3 14,5 42 23 51 28 S 20 0,0
12.08.2017 11:00:00 16,1 14,5 43 23 55 30 S 18 0,0
12.08.2017 10:00:00 16,0 14,5 41 22 50 27 S 24 0,0
12.08.2017 09:00:00 15,8 14,7 33 18 39 21 S 20 0,0
12.08.2017 08:00:00 15,7 14,7 29 16 39 21 S 19 0,0
12.08.2017 07:00:00 15,4 14,8 32 17 41 22 S 14 0,0
12.08.2017 06:00:00 15,3 14,8 36 19 44 24 S 14 0,0
12.08.2017 05:00:00 15,2 14,7 35 19 44 24 S 16 0,0
12.08.2017 04:00:00 15,2 14,7 33 18 41 22 S 19 0,0
12.08.2017 03:00:00 15,2 14,9 31 17 36 19 S 20 0,0
12.08.2017 02:00:00 15,2 14,7 29 16 40 21 S 17 0,0
12.08.2017 01:00:00 15,4 14,8 32 17 41 22 S 20 0,0
12.08.2017 00:00:00 15,5 14,7 33 18 41 22 S 25 0,0
11.08.2017 23:00:00 15,5 14,5 31 17 39 21 S 28 0,0
11.08.2017 22:00:00 15,3 14,5 30 16 36 19 S 38 0,0
11.08.2017 21:00:00 15,4 14,4 20 11 30 16 S 41 0,0
11.08.2017 20:00:00 15,4 14,6 21 12 32 18 S 34 0,0
11.08.2017 19:00:00 15,5 14,7 26 14 34 18 S 36 0,0
11.08.2017 18:00:00 15,6 14,6 28 15 34 18 S 36 0,0
11.08.2017 17:00:00 15,9 14,4 26 14 34 18 S 31 0,0
11.08.2017 16:00:00 15,9 14,3 29 15 33 18 S 32 0,0
11.08.2017 15:00:00 16,0 14,2 26 14 41 22 S 37 0,0
11.08.2017 14:00:00 15,8 13,5 33 18 40 22 S 41 0,0
11.08.2017 13:00:00 16,1 13,0 34 18 41 22 S 44 0,0
11.08.2017 12:00:00 16,5 12,8 26 14 33 18 S 38 0,0
11.08.2017 11:00:00 15,8 13,1 29 16 35 19 S 35 0,0
11.08.2017 10:00:00 15,0 11,8 31 17 36 20 SSW 48 0,0
11.08.2017 09:00:00 14,8 11,0 25 13 37 20 SSW 50 0,0

tt = temperature
td = dewpoint
ff = wind speed
fx = gusts
dd = wind direction
vv = visibility
rr = precipitation

Next stations